Terminal Aerodrome Forecast
Issued by NWS Northern Indiana

Home | Current Version | Previous Version | Text Only | Print | Product List | Glossary On
Versions: 1 2 3 4 5 6 7 8 9 10 11 12 13 14
068
FTUS43 KIWX 251720
TAFFWA
TAF
KFWA 251720Z 2518/2618 08005KT P6SM SCT250
     FM260000 12005KT P6SM SCT250
     FM261300 17006KT P6SM SCT150=

USA.gov is the U.S. government's official web portal to all federal, state and local government web resources and services.